createdAt,value
2018-11-22T12:16:51.933Z,26.07
2018-11-22T12:19:20.985Z,23.43
2018-11-22T12:21:49.770Z,26.63
2018-11-22T12:24:18.438Z,25.27
2018-11-22T12:26:47.016Z,23.20
2018-11-22T12:29:15.454Z,23.23
2018-11-22T12:31:44.005Z,23.97
2018-11-22T12:34:20.310Z,22.53
2018-11-22T12:36:53.759Z,25.20
2018-11-22T12:39:22.341Z,28.00
2018-11-22T12:41:50.803Z,27.20
2018-11-22T12:44:19.655Z,26.50
2018-11-22T12:46:48.251Z,25.07
2018-11-22T12:49:16.850Z,27.03
2018-11-22T12:51:45.309Z,28.47
2018-11-22T12:54:13.834Z,27.13
2018-11-22T12:56:42.403Z,24.57
2018-11-22T12:59:10.874Z,22.37
2018-11-22T13:01:39.489Z,26.87
2018-11-22T13:04:08.048Z,25.67
2018-11-22T13:06:36.871Z,25.77
2018-11-22T13:09:07.999Z,25.60
2018-11-22T13:11:36.896Z,25.27
2018-11-22T13:14:05.507Z,24.17
2018-11-22T13:16:33.924Z,24.83
2018-11-22T13:19:02.570Z,26.00
2018-11-22T13:21:31.044Z,24.47
2018-11-22T13:23:59.595Z,25.43
2018-11-22T13:26:28.167Z,25.87
2018-11-22T13:28:56.699Z,26.30
2018-11-22T13:31:25.389Z,26.07
2018-11-22T13:33:56.820Z,22.73
2018-11-22T13:36:25.383Z,24.63
2018-11-22T13:38:53.968Z,20.83
2018-11-22T13:41:22.535Z,23.93
2018-11-22T13:43:51.023Z,22.63
2018-11-22T13:46:19.822Z,23.17
2018-11-22T13:48:48.250Z,24.33
2018-11-22T13:51:17.332Z,22.53
2018-11-22T13:53:46.003Z,21.83
2018-11-22T13:56:14.538Z,25.53
2018-11-22T13:58:43.119Z,22.60
2018-11-22T14:01:12.679Z,24.57
2018-11-22T14:03:41.091Z,24.53
2018-11-22T14:06:09.507Z,24.90
2018-11-22T14:08:38.011Z,22.33
2018-11-22T14:11:13.405Z,24.33
2018-11-22T14:13:35.034Z,21.50
2018-11-22T14:16:04.410Z,25.53
2018-11-22T14:18:33.060Z,23.77
2018-11-22T14:21:01.605Z,22.67
2018-11-22T14:23:30.095Z,22.57
2018-11-22T14:25:59.591Z,22.83
2018-11-22T14:28:28.006Z,20.57
2018-11-22T14:30:57.446Z,23.17
2018-11-22T14:33:27.486Z,23.13
2018-11-22T14:35:55.905Z,22.23
2018-11-22T14:38:25.004Z,22.30
2018-11-22T14:40:54.532Z,22.27
2018-11-22T14:43:23.192Z,21.43
2018-11-22T14:45:51.812Z,22.40
2018-11-22T14:48:20.410Z,22.20
2018-11-22T14:50:55.672Z,23.27
2018-11-22T14:53:25.575Z,21.50
2018-11-22T14:55:54.395Z,21.37
2018-11-22T14:58:23.740Z,22.70
2018-11-22T15:00:52.548Z,23.53
2018-11-22T15:03:21.014Z,23.03
2018-11-22T15:05:51.343Z,22.80
2018-11-22T15:08:20.111Z,24.33
2018-11-22T15:10:48.693Z,21.57
2018-11-22T15:13:17.422Z,25.00
2018-11-22T15:15:51.813Z,23.77
2018-11-22T15:18:21.793Z,23.30
2018-11-22T15:20:50.570Z,24.63
2018-11-22T15:23:19.179Z,17.97
2018-11-22T15:25:48.087Z,20.73
2018-11-22T15:28:17.261Z,22.23
2018-11-22T15:30:45.853Z,22.00
2018-11-22T15:33:14.557Z,22.20
2018-11-22T15:35:43.587Z,22.27
2018-11-22T15:38:12.283Z,20.17
2018-11-22T15:40:42.107Z,23.30
2018-11-22T15:43:11.929Z,21.13
2018-11-22T15:45:40.589Z,20.83
2018-11-22T15:48:10.355Z,19.67
2018-11-22T15:50:39.186Z,19.37
2018-11-22T15:53:07.946Z,19.27
2018-11-22T15:55:37.236Z,21.17
2018-11-22T15:58:06.952Z,20.07
2018-11-22T16:00:35.751Z,22.27
2018-11-22T16:03:05.127Z,22.83
2018-11-22T16:05:34.092Z,21.77
2018-11-22T16:08:02.567Z,20.23
2018-11-22T16:10:32.875Z,20.20
2018-11-22T16:13:03.742Z,22.07
2018-11-22T16:15:36.996Z,22.13
2018-11-22T16:18:05.820Z,23.00
2018-11-22T16:20:34.662Z,22.37
2018-11-22T16:23:03.538Z,19.57
2018-11-22T16:25:32.148Z,21.83
2018-11-22T16:28:01.010Z,21.50
2018-11-22T16:30:30.690Z,21.77
2018-11-22T16:32:59.442Z,20.20
2018-11-22T16:35:33.210Z,22.60
2018-11-22T16:37:57.489Z,22.23
2018-11-22T16:40:27.376Z,21.40
2018-11-22T16:42:57.396Z,21.00
2018-11-22T16:45:27.831Z,20.83
2018-11-22T16:47:57.286Z,19.80
2018-11-22T16:50:27.158Z,20.20
2018-11-22T16:52:56.040Z,19.67
2018-11-22T16:55:26.367Z,18.00
2018-11-22T16:57:56.617Z,19.93
2018-11-22T17:00:28.324Z,19.97
2018-11-22T17:02:58.429Z,20.63
2018-11-22T17:05:27.126Z,19.67
2018-11-22T17:07:55.848Z,21.30
2018-11-22T17:10:25.640Z,20.83
2018-11-22T17:12:55.334Z,23.60
2018-11-22T17:15:25.382Z,22.00
2018-11-22T17:17:54.455Z,21.77
2018-11-22T17:20:23.803Z,24.07
2018-11-22T17:22:53.258Z,20.37
2018-11-22T17:25:26.376Z,22.23
2018-11-22T17:27:57.242Z,19.47
2018-11-22T17:30:29.145Z,21.70
2018-11-22T17:33:00.831Z,21.27
2018-11-22T17:35:36.470Z,22.20
2018-11-22T17:38:06.307Z,20.73
2018-11-22T17:40:37.628Z,22.47
2018-11-22T17:43:06.892Z,22.20
2018-11-22T17:45:37.806Z,21.60
2018-11-22T17:48:07.025Z,21.87
2018-11-22T17:50:37.450Z,20.30
2018-11-22T17:53:06.917Z,22.50
2018-11-22T17:55:35.914Z,21.40
2018-11-22T17:58:04.931Z,19.80
2018-11-22T18:00:35.387Z,21.37
2018-11-22T18:03:04.801Z,23.00
2018-11-22T18:05:33.813Z,20.87
2018-11-22T18:08:02.399Z,21.03
2018-11-22T18:10:36.733Z,20.83
2018-11-22T18:13:08.120Z,20.93
2018-11-22T18:15:41.799Z,20.20
2018-11-22T18:18:13.957Z,21.93
2018-11-22T18:20:42.455Z,21.73
2018-11-22T18:23:11.615Z,23.07
2018-11-22T18:25:39.985Z,23.00
2018-11-22T18:28:08.548Z,21.37
2018-11-22T18:30:38.564Z,20.90
2018-11-22T18:33:08.654Z,20.47
2018-11-22T18:35:37.109Z,21.37
2018-11-22T18:38:05.988Z,20.83
2018-11-22T18:40:36.441Z,22.80
2018-11-22T18:43:05.409Z,20.30
2018-11-22T18:45:36.482Z,20.90
2018-11-22T18:48:07.648Z,21.07
2018-11-22T18:50:37.501Z,21.20
2018-11-22T18:53:06.488Z,21.93
2018-11-22T18:55:35.037Z,21.50
2018-11-22T18:58:04.328Z,20.63
2018-11-22T19:00:34.396Z,19.40
2018-11-22T19:03:04.708Z,19.70
2018-11-22T19:05:33.160Z,19.07
2018-11-22T19:08:02.097Z,20.00
2018-11-22T19:10:35.182Z,18.27
2018-11-22T19:13:05.189Z,20.87
2018-11-22T19:15:36.296Z,18.53
2018-11-22T19:18:05.679Z,19.47
2018-11-22T19:20:35.635Z,20.90
2018-11-22T19:23:05.303Z,20.47
2018-11-22T19:25:35.039Z,18.57
2018-11-22T19:28:04.266Z,18.03
2018-11-22T19:30:37.343Z,18.50
2018-11-22T19:33:05.331Z,19.00
2018-11-22T19:35:35.349Z,19.53
2018-11-22T19:38:03.815Z,18.97
2018-11-22T19:40:33.857Z,19.33
2018-11-22T19:43:03.943Z,19.20
2018-11-22T19:45:34.065Z,20.17
2018-11-22T19:48:02.644Z,19.57
2018-11-22T19:50:31.948Z,19.83
2018-11-22T19:53:02.493Z,20.73
2018-11-22T19:55:32.427Z,21.97
2018-11-22T19:58:02.517Z,20.50
2018-11-22T20:00:31.146Z,23.60
2018-11-22T20:03:01.175Z,21.80
2018-11-22T20:05:31.706Z,21.77
2018-11-22T20:08:01.912Z,22.27
2018-11-22T20:10:32.624Z,22.23
2018-11-22T20:13:01.390Z,22.70
2018-11-22T20:15:30.114Z,21.07
2018-11-22T20:18:00.859Z,20.67
2018-11-22T20:20:29.517Z,19.83
2018-11-22T20:22:58.421Z,20.23
2018-11-22T20:25:38.180Z,20.13
2018-11-22T20:28:06.806Z,19.93
2018-11-22T20:30:37.493Z,20.53
2018-11-22T20:33:06.391Z,19.63
2018-11-22T20:35:35.730Z,19.90
2018-11-22T20:38:04.329Z,20.17
2018-11-22T20:40:32.936Z,21.03
2018-11-22T20:43:01.699Z,20.57
2018-11-22T20:45:31.314Z,20.97
2018-11-22T20:48:03.132Z,18.70
2018-11-22T20:50:33.096Z,21.33
2018-11-22T20:53:01.862Z,20.67
2018-11-22T20:55:32.132Z,20.97
2018-11-22T20:58:02.903Z,22.10
2018-11-22T21:00:43.119Z,20.03
2018-11-22T21:03:11.825Z,21.40
2018-11-22T21:05:40.351Z,19.33
2018-11-22T21:08:08.905Z,20.97
2018-11-22T21:10:37.775Z,19.30
2018-11-22T21:13:06.272Z,18.70
2018-11-22T21:15:35.701Z,19.03
2018-11-22T21:18:05.384Z,18.97
2018-11-22T21:20:35.578Z,17.87
2018-11-22T21:23:04.327Z,20.03
2018-11-22T21:25:35.961Z,21.37
2018-11-22T21:28:04.696Z,20.97
2018-11-22T21:30:36.192Z,21.17
2018-11-22T21:33:04.916Z,19.20
2018-11-22T21:35:33.906Z,20.20
2018-11-22T21:38:03.381Z,19.50
2018-11-22T21:40:33.109Z,17.63
2018-11-22T21:43:01.760Z,19.77
2018-11-22T21:45:31.141Z,20.60
2018-11-22T21:47:59.782Z,19.97
2018-11-22T21:50:28.993Z,19.30
2018-11-22T21:52:57.703Z,20.17
2018-11-22T21:55:27.595Z,19.70
2018-11-22T21:57:57.508Z,20.57
2018-11-22T22:00:29.198Z,19.77
2018-11-22T22:03:00.197Z,21.63
2018-11-22T22:05:28.769Z,20.70
2018-11-22T22:07:57.318Z,21.47
2018-11-22T22:10:25.927Z,20.37
2018-11-22T22:12:54.509Z,20.93
2018-11-22T22:15:24.367Z,21.83
2018-11-22T22:17:52.926Z,20.37
2018-11-22T22:20:23.975Z,21.63
2018-11-22T22:22:52.539Z,23.07
2018-11-22T22:25:22.354Z,24.63
2018-11-22T22:27:51.656Z,25.07
2018-11-22T22:30:21.493Z,24.90
2018-11-22T22:32:51.698Z,22.60
2018-11-22T22:35:19.962Z,27.37
2018-11-22T22:37:48.595Z,25.37
2018-11-22T22:40:19.332Z,25.20
2018-11-22T22:42:48.615Z,21.70
2018-11-22T22:45:18.199Z,23.03
2018-11-22T22:47:47.710Z,21.53
2018-11-22T22:50:18.551Z,22.70
2018-11-22T22:52:48.063Z,23.23
2018-11-22T22:55:16.724Z,24.33
2018-11-22T22:57:45.439Z,24.70
2018-11-22T23:00:21.246Z,21.87
2018-11-22T23:02:51.551Z,23.20
2018-11-22T23:05:20.821Z,22.57
2018-11-22T23:07:49.566Z,24.43
2018-11-22T23:10:19.014Z,25.33
2018-11-22T23:12:47.664Z,25.17
2018-11-22T23:15:17.178Z,26.53
2018-11-22T23:17:45.714Z,23.47
2018-11-22T23:20:16.601Z,25.47
2018-11-22T23:22:45.733Z,25.40
2018-11-22T23:25:16.202Z,28.30
2018-11-22T23:27:45.011Z,26.60
2018-11-22T23:30:18.309Z,23.83
2018-11-22T23:32:47.811Z,26.37
2018-11-22T23:35:16.990Z,26.07
2018-11-22T23:37:45.829Z,25.37
2018-11-22T23:40:15.603Z,26.63
2018-11-22T23:42:44.284Z,25.73
2018-11-22T23:45:14.083Z,24.87
2018-11-22T23:47:43.084Z,25.30
2018-11-22T23:50:14.373Z,24.53
2018-11-22T23:52:44.377Z,25.47
2018-11-22T23:55:12.930Z,26.80
2018-11-22T23:57:41.531Z,24.13
